Time;durP1;ratioP1;P1;durP2;ratioP2;P2;SDS_P1;SDS_P2;PMS_P1;PMS_P2;Temp;Humidity;BMP_temperature;BMP_pressure;BME280_temperature;BME280_humidity;BME280_pressure;Samples;Min_cycle;Max_cycle;Signal;HPM_P1;HPM_P2
2024/04/12 17:24:18;;;;;;;;;;;;;;;18.66;45.58;100009.85;103265;1291;599154;-84
2024/04/12 17:26:45;;;;;;;;;;;;;;;18.61;45.62;100013.67;105553;1270;59728;-84
2024/04/12 17:29:15;;;;;;;;;;;;;;;18.53;45.81;100014.30;105946;1260;59773;-84
2024/04/12 17:31:44;;;;;;;;;;;;;;;18.49;46.11;100014.03;105927;1260;71975;-84
2024/04/12 17:34:12;;;;;;;;;;;;;;;18.60;45.89;100016.63;105885;1261;68762;-84
2024/04/12 17:36:40;;;;;;;;;;;;;;;18.46;46.15;100022.02;105917;1267;70881;-84
2024/04/12 17:39:08;;;;;;;;;;;;;;;18.30;46.67;100024.05;105769;1260;175777;-82
2024/04/12 17:41:39;;;;;;;;;;;;;;;18.26;46.84;100027.41;105908;1259;62170;-84
2024/04/12 17:44:07;;;;;;;;;;;;;;;18.28;46.85;100023.15;106130;1260;71889;-84
2024/04/12 17:46:34;;;;;;;;;;;;;;;18.20;47.23;100024.23;105940;1259;69175;-83
2024/04/12 17:49:04;;;;;;;;;;;;;;;18.21;47.62;100020.59;106182;1263;72621;-83
2024/04/12 17:51:35;;;;;;;;;;;;;;;18.16;47.98;100021.14;105925;1260;60450;-83
2024/04/12 17:54:04;;;;;;;;;;;;;;;18.05;48.70;100023.46;106253;1259;60496;-85
2024/04/12 17:56:33;;;;;;;;;;;;;;;17.94;49.36;100025.23;106120;1262;72611;-85
2024/04/12 17:59:04;;;;;;;;;;;;;;;17.79;50.19;100028.48;106109;1259;68513;-83
2024/04/12 18:01:33;;;;;;;;;;;;;;;17.72;50.84;100027.70;105903;1263;71775;-83
2024/04/12 18:04:06;;;;;;;;;;;;;;;17.70;51.11;100029.35;105910;1259;62194;-82
2024/04/12 18:06:45;;;;;;;;;;;;;;;17.58;51.73;100031.92;105793;1260;60566;-83
2024/04/12 18:09:12;;;;;;;;;;;;;;;17.39;52.96;100033.64;106025;1260;72638;-83
2024/04/12 18:11:44;;;;;;;;;;;;;;;17.23;54.17;100032.50;105911;1260;68491;-84
2024/04/12 18:14:15;;;;;;;;;;;;;;;17.26;54.69;100034.43;105993;1260;72648;-83
2024/04/12 18:16:43;;;;;;;;;;;;;;;17.23;55.44;100038.86;106128;1261;60498;-84
2024/04/12 18:19:10;;;;;;;;;;;;;;;17.31;55.34;100036.60;106264;1260;60543;-85
2024/04/12 18:21:39;;;;;;;;;;;;;;;17.36;55.76;100038.07;106263;1259;72627;-85
2024/04/12 18:24:07;;;;;;;;;;;;;;;17.43;55.79;100034.04;105893;1261;70573;-83
2024/04/12 18:26:37;;;;;;;;;;;;;;;17.49;56.08;100037.34;106000;1262;71848;-81
2024/04/12 18:29:04;;;;;;;;;;;;;;;17.42;56.71;100038.40;106068;1262;60541;-82
2024/04/12 18:31:32;;;;;;;;;;;;;;;17.07;58.07;100043.11;106017;1265;60355;-81
2024/04/12 18:33:59;;;;;;;;;;;;;;;16.67;60.94;100039.62;105968;1259;73797;-82
2024/04/12 18:36:34;;;;;;;;;;;;;;;16.64;61.87;100045.91;106087;1259;68879;-81
2024/04/12 18:47:25;;;;;;;;;;;;;;;16.99;61.57;100054.90;106033;1261;76039;-82
2024/04/12 18:49:53;;;;;;;;;;;;;;;17.12;61.09;100059.06;106050;1259;68468;-83
2024/04/12 18:52:21;;;;;;;;;;;;;;;17.13;61.06;100057.27;106002;1267;71525;-82
2024/04/12 18:54:48;;;;;;;;;;;;;;;17.15;61.28;100063.06;105969;1260;60826;-83
2024/04/12 18:57:16;;;;;;;;;;;;;;;16.93;62.69;100061.25;106265;1259;60332;-83
2024/04/12 18:59:44;;;;;;;;;;;;;;;16.87;63.20;100062.70;106305;1259;72681;-83
2024/04/12 19:02:12;;;;;;;;;;;;;;;16.87;63.47;100064.98;106761;1254;68468;-84
2024/04/12 19:04:40;;;;;;;;;;;;;;;16.85;63.66;100071.60;106652;1257;72686;-83
2024/04/12 19:07:07;;;;;;;;;;;;;;;16.57;65.54;100073.48;106420;1259;61122;-82
2024/04/12 19:09:35;;;;;;;;;;;;;;;16.38;66.92;100076.38;106714;1254;60294;-84
2024/04/12 19:12:03;;;;;;;;;;;;;;;16.27;67.82;100073.89;106604;1254;72761;-83
2024/04/12 19:14:30;;;;;;;;;;;;;;;16.20;68.42;100076.85;106695;1254;70074;-83
2024/04/12 19:16:58;;;;;;;;;;;;;;;16.19;68.78;100084.65;106576;1259;71466;-82
2024/04/12 19:19:25;;;;;;;;;;;;;;;16.13;68.94;100077.52;106367;1256;60796;-80
2024/04/12 19:21:53;;;;;;;;;;;;;;;16.13;68.69;100085.33;106149;1254;60927;-83
2024/04/12 19:24:20;;;;;;;;;;;;;;;16.24;67.90;100085.66;106318;1254;73383;-85
2024/04/12 19:26:50;;;;;;;;;;;;;;;16.29;67.04;100089.58;106336;1259;68514;-78
2024/04/12 19:29:18;;;;;;;;;;;;;;;16.10;67.79;100087.55;106565;1254;74781;-82
2024/04/12 19:31:49;;;;;;;;;;;;;;;16.17;67.35;100085.91;106602;1259;60472;-85
2024/04/12 19:34:16;;;;;;;;;;;;;;;16.01;68.26;100087.81;106337;1256;60918;-87
2024/04/12 19:36:44;;;;;;;;;;;;;;;16.19;67.07;100087.68;106409;1253;72682;-84
2024/04/12 19:39:12;;;;;;;;;;;;;;;15.94;68.52;100089.84;106642;1253;68537;-84
2024/04/12 19:41:40;;;;;;;;;;;;;;;16.01;68.19;100087.05;106325;1253;72607;-84
2024/04/12 19:44:09;;;;;;;;;;;;;;;15.98;68.36;100081.17;106551;1253;60483;-84
2024/04/12 19:46:36;;;;;;;;;;;;;;;15.92;68.54;100084.23;106428;1257;59673;-83
2024/04/12 19:49:04;;;;;;;;;;;;;;;15.86;68.75;100085.01;106393;1253;72645;-84
2024/04/12 19:51:34;;;;;;;;;;;;;;;15.72;69.35;100086.60;106558;1251;68066;-83
2024/04/12 19:54:03;;;;;;;;;;;;;;;15.49;71.14;100085.65;106430;1259;72608;-84
2024/04/12 19:56:32;;;;;;;;;;;;;;;15.58;70.27;100090.93;106545;1257;61779;-83
2024/04/12 19:59:00;;;;;;;;;;;;;;;15.43;70.91;100091.33;106432;1257;60445;-84
2024/04/12 20:01:28;;;;;;;;;;;;;;;15.30;71.43;100093.94;106374;1258;73746;-82
2024/04/12 20:03:55;;;;;;;;;;;;;;;15.04;73.22;100086.89;106259;1253;68741;-83
2024/04/12 20:06:23;;;;;;;;;;;;;;;15.14;72.45;100086.01;106517;1253;71143;-84
2024/04/12 20:08:52;;;;;;;;;;;;;;;14.82;73.76;100086.64;106628;1253;61910;-84
2024/04/12 20:11:19;;;;;;;;;;;;;;;14.92;73.40;100084.88;106408;1252;60508;-85
2024/04/12 20:13:47;;;;;;;;;;;;;;;14.89;73.41;100086.00;106674;1257;74030;-84
2024/04/12 20:16:14;;;;;;;;;;;;;;;14.92;73.38;100090.81;106459;1253;67584;-85
2024/04/12 20:18:43;;;;;;;;;;;;;;;14.98;72.72;100086.66;106556;1254;71490;-83
2024/04/12 20:21:11;;;;;;;;;;;;;;;15.05;72.05;100085.31;106556;1253;61719;-85
2024/04/12 20:23:39;;;;;;;;;;;;;;;15.05;71.96;100085.85;106517;1255;60429;-83
2024/04/12 20:26:18;;;;;;;;;;;;;;;15.03;71.96;100084.06;106406;1253;72640;-85
2024/04/12 20:28:46;;;;;;;;;;;;;;;15.00;71.69;100080.60;106557;1261;68409;-84
2024/04/12 20:31:23;;;;;;;;;;;;;;;14.91;72.07;100080.48;106528;1258;71507;-84
2024/04/12 20:36:37;;;;;;;;;;;;;;;14.81;72.48;100075.73;106447;1253;60373;-84
2024/04/12 20:39:19;;;;;;;;;;;;;;;14.51;74.10;100075.77;106212;1252;72698;-83
2024/04/12 20:41:48;;;;;;;;;;;;;;;14.45;74.95;100075.54;106440;1253;69208;-82
2024/04/12 20:44:20;;;;;;;;;;;;;;;14.63;74.35;100075.55;106280;1256;71218;-83
2024/04/12 20:46:48;;;;;;;;;;;;;;;14.73;73.21;100071.29;106118;1259;60496;-83
2024/04/12 20:49:16;;;;;;;;;;;;;;;14.67;73.51;100068.20;105921;1259;60561;-84
2024/04/12 20:51:44;;;;;;;;;;;;;;;14.56;74.02;100067.37;106018;1264;72571;-83
2024/04/12 20:54:12;;;;;;;;;;;;;;;14.58;74.00;100066.52;106221;1264;67627;-83
2024/04/12 20:56:40;;;;;;;;;;;;;;;14.59;73.79;100064.63;105919;1262;72759;-84
2024/04/12 20:59:07;;;;;;;;;;;;;;;14.46;74.22;100061.77;108293;1260;61710;-82
2024/04/12 21:01:41;;;;;;;;;;;;;;;14.48;74.20;100063.27;109042;1264;59185;-83
2024/04/12 21:12:04;;;;;;;;;;;;;;;14.24;75.86;100062.35;106000;1261;72617;-85
2024/04/12 21:14:34;;;;;;;;;;;;;;;14.15;76.64;100064.58;105914;1262;60731;-83
2024/04/12 21:17:03;;;;;;;;;;;;;;;14.07;77.42;100061.26;105644;1259;60551;-83
2024/04/12 21:19:30;;;;;;;;;;;;;;;14.09;76.96;100061.97;106086;1264;73807;-82
2024/04/12 21:21:58;;;;;;;;;;;;;;;14.05;77.04;100063.58;105614;1264;67649;-83
2024/04/12 21:24:25;;;;;;;;;;;;;;;14.03;77.12;100062.16;105896;1256;72674;-83
2024/04/12 21:26:53;;;;;;;;;;;;;;;13.95;77.09;100057.44;106067;1260;60788;-83
2024/04/12 21:29:20;;;;;;;;;;;;;;;13.54;79.00;100057.14;106014;1256;60374;-83
2024/04/12 21:31:50;;;;;;;;;;;;;;;13.24;81.23;100053.52;105969;1260;73874;-82
2024/04/12 21:34:18;;;;;;;;;;;;;;;13.24;81.86;100049.06;105995;1261;66736;-82
2024/04/12 21:36:45;;;;;;;;;;;;;;;13.22;82.07;100048.91;106038;1256;71918;-82
2024/04/12 21:39:13;;;;;;;;;;;;;;;13.24;82.00;100047.16;106003;1256;61755;-83
2024/04/12 21:41:40;;;;;;;;;;;;;;;13.20;82.90;100049.01;106090;1256;62393;-82
2024/04/12 21:44:08;;;;;;;;;;;;;;;13.31;83.02;100048.46;106015;1254;74628;-82
2024/04/12 21:46:37;;;;;;;;;;;;;;;13.32;83.39;100045.77;106033;1256;68775;-82
2024/04/12 21:49:05;;;;;;;;;;;;;;;13.44;81.95;100050.59;106065;1256;71723;-83
2024/04/12 21:51:34;;;;;;;;;;;;;;;13.38;82.42;100048.14;106164;1253;61326;-83
2024/04/12 21:54:01;;;;;;;;;;;;;;;13.36;82.67;100047.75;106207;1258;61244;-83
2024/04/12 21:56:29;;;;;;;;;;;;;;;13.48;82.49;100047.55;106384;1255;75066;-82
2024/04/12 21:58:58;;;;;;;;;;;;;;;13.54;82.66;100047.63;106248;1253;68731;-85
2024/04/12 22:01:26;;;;;;;;;;;;;;;13.63;81.30;100045.96;106232;1254;72870;-86
2024/04/12 22:03:54;;;;;;;;;;;;;;;13.58;81.64;100046.80;106327;1253;61772;-85
2024/04/12 22:06:21;;;;;;;;;;;;;;;13.59;81.77;100052.95;106164;1259;61210;-85
2024/04/12 22:08:53;;;;;;;;;;;;;;;13.70;81.18;100051.29;106177;1253;74786;-82
2024/04/12 22:11:23;;;;;;;;;;;;;;;13.78;80.98;100051.26;106126;1253;66752;-82
2024/04/12 22:13:51;;;;;;;;;;;;;;;13.78;81.06;100049.27;106170;1253;72607;-82
2024/04/12 22:16:19;;;;;;;;;;;;;;;13.84;80.83;100047.30;106045;1259;61341;-82
2024/04/12 22:18:46;;;;;;;;;;;;;;;13.89;80.79;100049.33;105920;1258;61162;-82
2024/04/12 22:21:16;;;;;;;;;;;;;;;13.97;81.17;100044.11;106088;1257;73408;-83
2024/04/12 22:23:44;;;;;;;;;;;;;;;14.13;80.34;100041.52;106116;1253;68571;-83
2024/04/12 22:26:15;;;;;;;;;;;;;;;14.10;80.22;100041.85;106154;1253;71495;-82
2024/04/12 22:28:43;;;;;;;;;;;;;;;14.16;79.93;100039.00;106121;1258;61337;-83
2024/04/12 22:31:15;;;;;;;;;;;;;;;14.07;80.65;100038.15;106190;1253;61346;-83
2024/04/12 22:33:46;;;;;;;;;;;;;;;13.95;81.89;100032.71;106175;1257;73430;-82
2024/04/12 22:36:14;;;;;;;;;;;;;;;14.00;81.91;100030.36;106208;1253;68475;-82
2024/04/12 22:38:42;;;;;;;;;;;;;;;14.05;81.65;100027.52;106255;1253;72680;-83
2024/04/12 22:41:09;;;;;;;;;;;;;;;14.06;81.51;100026.13;106115;1253;61960;-83
2024/04/12 22:43:36;;;;;;;;;;;;;;;14.06;81.71;100026.50;106106;1253;62560;-83
2024/04/12 22:46:04;;;;;;;;;;;;;;;13.99;82.62;100023.98;106126;1254;74700;-83
2024/04/12 22:48:31;;;;;;;;;;;;;;;13.93;82.92;100020.79;106173;1258;68786;-84
2024/04/12 22:50:59;;;;;;;;;;;;;;;13.99;82.71;100021.98;106076;1259;72648;-84
2024/04/12 22:53:26;;;;;;;;;;;;;;;13.99;82.67;100017.61;106096;1253;62212;-83
2024/04/12 22:55:57;;;;;;;;;;;;;;;13.89;83.53;100016.62;106097;1253;61273;-83
2024/04/12 22:58:25;;;;;;;;;;;;;;;13.98;82.98;100016.54;106069;1259;74709;-82
2024/04/12 23:00:53;;;;;;;;;;;;;;;14.10;82.44;100009.06;106192;1254;68726;-83
2024/04/12 23:03:21;;;;;;;;;;;;;;;14.01;82.99;100009.20;106142;1253;73184;-85
2024/04/12 23:05:49;;;;;;;;;;;;;;;14.13;82.70;100009.95;106477;1257;61699;-86
2024/04/12 23:08:17;;;;;;;;;;;;;;;14.21;82.40;100007.15;108133;1253;61218;-86
2024/04/12 23:10:46;;;;;;;;;;;;;;;14.23;82.28;100008.23;108644;1255;74613;-86
2024/04/12 23:13:13;;;;;;;;;;;;;;;14.32;81.82;100007.45;108319;1258;68017;-86
2024/04/12 23:15:41;;;;;;;;;;;;;;;14.37;81.42;100008.65;107690;1253;71480;-84
2024/04/12 23:18:11;;;;;;;;;;;;;;;14.37;81.52;100001.02;107242;1255;61228;-85
2024/04/12 23:20:40;;;;;;;;;;;;;;;14.38;81.21;100003.41;107087;1253;61282;-85
2024/04/12 23:23:07;;;;;;;;;;;;;;;14.42;81.02;100005.96;106989;1253;73438;-85
2024/04/12 23:25:37;;;;;;;;;;;;;;;14.40;81.32;100003.69;106911;1253;67255;-85
2024/04/12 23:28:07;;;;;;;;;;;;;;;14.47;81.24;100002.13;106585;1256;72611;-82
2024/04/12 23:30:34;;;;;;;;;;;;;;;14.60;80.65;100003.52;106157;1256;61687;-84
2024/04/12 23:33:02;;;;;;;;;;;;;;;14.54;80.87;99997.72;106218;1256;61353;-84
2024/04/12 23:35:31;;;;;;;;;;;;;;;14.58;80.63;99997.42;106036;1261;74647;-84
2024/04/12 23:38:00;;;;;;;;;;;;;;;14.37;81.93;99998.38;106802;1256;68558;-84
2024/04/12 23:40:27;;;;;;;;;;;;;;;14.49;81.60;99998.95;105898;1256;72708;-83
2024/04/12 23:42:54;;;;;;;;;;;;;;;14.44;82.03;100001.53;105925;1261;61156;-83
2024/04/12 23:45:22;;;;;;;;;;;;;;;14.64;81.30;99996.01;105960;1261;61226;-83
2024/04/12 23:47:50;;;;;;;;;;;;;;;14.87;79.80;99994.27;105936;1261;73649;-83
2024/04/12 23:50:18;;;;;;;;;;;;;;;14.87;79.89;99997.96;105977;1256;68753;-83
2024/04/12 23:52:46;;;;;;;;;;;;;;;14.86;80.08;99995.52;105957;1260;72626;-83
2024/04/12 23:55:13;;;;;;;;;;;;;;;14.88;80.07;99993.80;105958;1257;61661;-83
2024/04/12 23:57:41;;;;;;;;;;;;;;;14.92;80.01;99994.38;105977;1261;61143;-84
